Time;durP1;ratioP1;P1;durP2;ratioP2;P2;SDS_P1;SDS_P2;PMS_P1;PMS_P2;Temp;Humidity;BMP_temperature;BMP_pressure;BME280_temperature;BME280_humidity;BME280_pressure;Samples;Min_cycle;Max_cycle;Signal;HPM_P1;HPM_P2
2023/05/27 00:01:35;;;;;;;22.00;7.15;;;;;;;;;;4960348;29;20140;-93
2023/05/27 00:04:19;;;;;;;23.23;7.65;;;;;;;;;;4956072;28;20071;-95
2023/05/27 00:12:12;;;;;;;17.30;6.50;;;;;;;;;;5107115;23;20067;-94
2023/05/27 00:14:57;;;;;;;23.90;6.93;;;;;;;;;;4955358;29;20054;-94
2023/05/27 00:17:42;;;;;;;21.20;7.72;;;;;;;;;;4942228;29;20050;-96
2023/05/27 00:20:27;;;;;;;19.90;7.15;;;;;;;;;;4955914;29;20082;-95
2023/05/27 00:23:11;;;;;;;22.88;7.00;;;;;;;;;;4941461;29;20113;-95
2023/05/27 00:25:56;;;;;;;18.15;6.40;;;;;;;;;;4955098;29;20129;-93
2023/05/27 00:28:40;;;;;;;18.77;5.40;;;;;;;;;;4939363;29;20502;-94
2023/05/27 00:31:25;;;;;;;15.73;5.57;;;;;;;;;;4941205;29;20062;-94
2023/05/27 00:34:10;;;;;;;15.80;6.60;;;;;;;;;;4954974;29;20128;-94
2023/05/27 00:36:57;;;;;;;13.80;5.78;;;;;;;;;;4955347;29;20098;-90
2023/05/27 00:39:42;;;;;;;16.17;5.07;;;;;;;;;;4941709;29;20062;-95
2023/05/27 00:42:26;;;;;;;22.67;6.32;;;;;;;;;;4955942;29;20094;-96
2023/05/27 00:45:11;;;;;;;15.35;6.20;;;;;;;;;;4955472;29;20507;-95
2023/05/27 00:47:56;;;;;;;17.02;6.45;;;;;;;;;;4940675;29;20584;-91
2023/05/27 00:50:40;;;;;;;16.88;5.68;;;;;;;;;;4940806;29;20404;-95
2023/05/27 00:53:25;;;;;;;16.98;4.97;;;;;;;;;;4955182;29;20070;-95
2023/05/27 00:56:10;;;;;;;18.08;6.00;;;;;;;;;;4955369;28;20069;-95
2023/05/27 00:58:55;;;;;;;13.93;5.30;;;;;;;;;;4940759;29;20090;-95
2023/05/27 01:01:43;;;;;;;14.05;5.25;;;;;;;;;;4940193;29;20070;-95
2023/05/27 01:04:27;;;;;;;17.10;5.18;;;;;;;;;;4954923;29;20046;-95
2023/05/27 01:07:25;;;;;;;19.45;5.72;;;;;;;;;;4939898;29;20134;-94
2023/05/27 01:10:24;;;;;;;20.85;5.00;;;;;;;;;;4954269;29;20038;-94
2023/05/27 01:13:09;;;;;;;13.35;4.85;;;;;;;;;;4939755;29;20527;-95
2023/05/27 01:15:54;;;;;;;19.88;5.90;;;;;;;;;;4940235;29;20041;-95
2023/05/27 01:18:44;;;;;;;17.13;5.88;;;;;;;;;;4940208;29;20046;-95
2023/05/27 01:21:30;;;;;;;17.85;7.55;;;;;;;;;;4940486;29;20407;-95
2023/05/27 01:24:15;;;;;;;18.35;5.55;;;;;;;;;;4940001;29;20042;-95
2023/05/27 01:27:02;;;;;;;16.35;5.35;;;;;;;;;;4940169;29;20042;-94
2023/05/27 01:29:47;;;;;;;17.40;5.82;;;;;;;;;;4954835;29;20070;-95
2023/05/27 01:32:40;;;;;;;23.77;6.63;;;;;;;;;;4940740;29;20208;-94
2023/05/27 01:35:31;;;;;;;20.63;7.03;;;;;;;;;;4939738;29;20034;-95
2023/05/27 01:38:18;;;;;;;19.25;5.50;;;;;;;;;;4954224;29;20118;-95
2023/05/27 01:41:03;;;;;;;16.33;5.30;;;;;;;;;;4954201;29;20035;-91
2023/05/27 01:43:48;;;;;;;14.85;6.05;;;;;;;;;;4939775;29;20049;-93
2023/05/27 01:46:32;;;;;;;12.93;5.95;;;;;;;;;;4954610;29;20499;-94
2023/05/27 01:49:17;;;;;;;21.55;6.93;;;;;;;;;;4939685;29;20041;-94
2023/05/27 01:52:01;;;;;;;15.73;5.40;;;;;;;;;;4954521;29;20098;-95
2023/05/27 01:54:46;;;;;;;18.92;6.28;;;;;;;;;;4942417;29;20046;-94
2023/05/27 01:57:31;;;;;;;16.83;5.75;;;;;;;;;;4954643;29;20043;-95
2023/05/27 02:00:16;;;;;;;18.83;6.60;;;;;;;;;;4942858;29;20400;-96
2023/05/27 02:03:01;;;;;;;15.50;6.15;;;;;;;;;;4949126;29;20046;-96
2023/05/27 02:05:45;;;;;;;19.00;5.18;;;;;;;;;;4945776;29;20121;-94
2023/05/27 02:08:30;;;;;;;18.48;6.65;;;;;;;;;;4946841;29;20514;-95
2023/05/27 02:11:15;;;;;;;21.05;5.55;;;;;;;;;;4935022;29;20102;-95
2023/05/27 02:13:59;;;;;;;16.05;5.32;;;;;;;;;;4949340;29;20046;-95
2023/05/27 02:16:44;;;;;;;17.90;5.80;;;;;;;;;;4944709;29;20503;-95
2023/05/27 02:19:29;;;;;;;15.05;5.30;;;;;;;;;;4945348;29;20546;-94
2023/05/27 02:22:13;;;;;;;19.60;5.50;;;;;;;;;;4949182;29;20042;-95
2023/05/27 02:24:58;;;;;;;20.70;5.93;;;;;;;;;;4959435;29;20067;-96
2023/05/27 02:27:47;;;;;;;18.55;6.32;;;;;;;;;;4962146;29;20043;-95
2023/05/27 02:30:31;;;;;;;15.52;6.20;;;;;;;;;;4966748;29;20031;-93
2023/05/27 02:33:16;;;;;;;13.43;5.68;;;;;;;;;;4965770;28;20026;-89
2023/05/27 02:36:00;;;;;;;22.85;6.30;;;;;;;;;;4965618;28;20079;-95
2023/05/27 02:38:45;;;;;;;16.95;6.30;;;;;;;;;;4975160;29;20066;-93
2023/05/27 02:41:30;;;;;;;19.30;5.72;;;;;;;;;;4960987;29;20407;-94
2023/05/27 02:44:15;;;;;;;18.02;6.95;;;;;;;;;;4961104;29;20070;-93
2023/05/27 02:49:35;;;;;;;18.45;6.35;;;;;;;;;;5131297;23;20052;-95
2023/05/27 02:52:20;;;;;;;27.63;8.90;;;;;;;;;;4967581;29;20083;-94
2023/05/27 02:55:05;;;;;;;18.80;5.53;;;;;;;;;;4951864;29;20042;-96
2023/05/27 02:57:50;;;;;;;21.55;6.07;;;;;;;;;;4948947;29;20075;-96
2023/05/27 03:00:35;;;;;;;29.38;7.43;;;;;;;;;;4948051;29;20070;-95
2023/05/27 03:03:19;;;;;;;27.35;6.07;;;;;;;;;;4963376;29;20045;-94
2023/05/27 03:06:04;;;;;;;20.75;6.85;;;;;;;;;;4942516;29;20042;-96
2023/05/27 03:08:48;;;;;;;23.88;6.15;;;;;;;;;;4929461;29;20045;-94
2023/05/27 03:11:33;;;;;;;28.58;7.13;;;;;;;;;;4929102;29;20042;-95
2023/05/27 03:14:18;;;;;;;25.38;5.72;;;;;;;;;;4956792;29;20061;-90
2023/05/27 03:17:02;;;;;;;23.80;7.03;;;;;;;;;;4942655;29;20042;-95
2023/05/27 03:19:48;;;;;;;21.17;6.55;;;;;;;;;;4941072;29;20122;-96
2023/05/27 03:22:33;;;;;;;20.08;6.75;;;;;;;;;;4942133;29;20042;-96
2023/05/27 03:25:17;;;;;;;21.83;7.00;;;;;;;;;;4956975;29;20050;-95
2023/05/27 03:28:02;;;;;;;26.20;6.60;;;;;;;;;;4956661;29;20832;-93
2023/05/27 03:30:46;;;;;;;17.63;5.90;;;;;;;;;;4942629;29;20046;-95
2023/05/27 03:33:31;;;;;;;22.52;5.35;;;;;;;;;;4957107;29;20042;-95
2023/05/27 03:36:16;;;;;;;17.13;5.80;;;;;;;;;;4942924;29;20043;-96
2023/05/27 03:39:00;;;;;;;17.38;4.60;;;;;;;;;;4942584;29;20087;-96
2023/05/27 03:41:45;;;;;;;19.95;5.90;;;;;;;;;;4944488;29;20057;-95
2023/05/27 03:44:29;;;;;;;22.13;5.43;;;;;;;;;;4948541;29;20038;-94
2023/05/27 03:47:17;;;;;;;15.15;5.53;;;;;;;;;;4946423;29;20123;-93
2023/05/27 03:50:02;;;;;;;14.25;5.30;;;;;;;;;;4978843;28;20054;-94
2023/05/27 03:52:47;;;;;;;16.98;5.05;;;;;;;;;;4957222;29;20082;-93
2023/05/27 03:55:32;;;;;;;27.13;6.63;;;;;;;;;;4956461;29;20042;-94
2023/05/27 03:58:17;;;;;;;25.05;5.30;;;;;;;;;;4942112;29;20503;-94
2023/05/27 04:01:01;;;;;;;20.80;4.90;;;;;;;;;;4956009;29;20047;-96
2023/05/27 04:03:46;;;;;;;17.88;5.60;;;;;;;;;;4955590;29;20120;-95
2023/05/27 04:06:31;;;;;;;26.17;6.82;;;;;;;;;;4955730;29;20062;-95
2023/05/27 04:09:16;;;;;;;18.67;5.40;;;;;;;;;;4941638;29;20062;-94
2023/05/27 04:12:01;;;;;;;17.73;5.13;;;;;;;;;;4941698;29;20042;-96
2023/05/27 04:14:45;;;;;;;18.15;5.95;;;;;;;;;;4955601;29;20210;-95
2023/05/27 04:17:30;;;;;;;27.17;6.25;;;;;;;;;;4956305;29;20042;-89
2023/05/27 04:20:15;;;;;;;26.83;6.25;;;;;;;;;;5294269;23;20162;-96
2023/05/27 04:22:59;;;;;;;24.25;5.68;;;;;;;;;;4929721;29;20055;-95
2023/05/27 04:25:44;;;;;;;18.38;5.43;;;;;;;;;;4933362;29;20043;-93
2023/05/27 04:28:31;;;;;;;13.77;4.53;;;;;;;;;;4934458;29;20039;-89
2023/05/27 04:31:22;;;;;;;19.30;5.57;;;;;;;;;;4935478;29;20047;-92
2023/05/27 04:39:18;;;;;;;19.20;4.88;;;;;;;;;;5746794;23;20051;-94
2023/05/27 04:42:05;;;;;;;23.42;6.18;;;;;;;;;;4973636;28;20042;-93
2023/05/27 04:44:56;;;;;;;17.90;5.53;;;;;;;;;;4976062;28;20049;-92
2023/05/27 04:47:44;;;;;;;17.92;4.50;;;;;;;;;;4960648;28;20046;-95
2023/05/27 04:50:29;;;;;;;16.70;5.40;;;;;;;;;;4972377;28;20045;-95
2023/05/27 04:53:19;;;;;;;20.35;5.10;;;;;;;;;;4971231;28;20047;-94
2023/05/27 04:58:42;;;;;;;21.67;4.97;;;;;;;;;;5311358;23;20068;-91
2023/05/27 05:01:39;;;;;;;29.70;6.75;;;;;;;;;;4943548;29;20056;-93
2023/05/27 05:04:26;;;;;;;18.85;5.50;;;;;;;;;;4940737;29;20054;-93
2023/05/27 05:07:11;;;;;;;22.42;5.82;;;;;;;;;;4952178;29;20040;-92
2023/05/27 05:09:55;;;;;;;20.35;5.13;;;;;;;;;;4936428;29;20223;-95
2023/05/27 05:12:43;;;;;;;24.33;5.28;;;;;;;;;;4940623;29;20051;-91
2023/05/27 05:18:14;;;;;;;16.65;4.63;;;;;;;;;;5177702;23;20051;-95
2023/05/27 05:20:59;;;;;;;20.35;5.15;;;;;;;;;;4937499;29;20054;-94
2023/05/27 05:23:44;;;;;;;19.98;4.97;;;;;;;;;;4929860;29;20042;-95
2023/05/27 05:26:36;;;;;;;25.40;6.50;;;;;;;;;;4940016;29;20098;-90
2023/05/27 05:29:21;;;;;;;20.42;5.90;;;;;;;;;;4951724;29;20035;-94
2023/05/27 05:32:11;;;;;;;21.40;5.60;;;;;;;;;;4942431;29;20042;-95
2023/05/27 05:34:56;;;;;;;19.58;5.15;;;;;;;;;;4925794;29;20043;-94
2023/05/27 05:37:41;;;;;;;23.17;6.03;;;;;;;;;;4922633;29;20038;-89
2023/05/27 05:40:25;;;;;;;20.80;4.65;;;;;;;;;;5098288;23;20081;-95
2023/05/27 05:43:10;;;;;;;21.25;5.45;;;;;;;;;;4977102;28;20178;-93
2023/05/27 05:45:54;;;;;;;18.20;4.40;;;;;;;;;;4962710;28;20093;-92
2023/05/27 05:48:39;;;;;;;18.98;5.30;;;;;;;;;;4963366;28;20049;-93
2023/05/27 05:51:23;;;;;;;17.15;4.45;;;;;;;;;;4963042;28;20089;-94
2023/05/27 05:54:08;;;;;;;17.58;4.97;;;;;;;;;;4962832;28;20054;-94
2023/05/27 05:56:53;;;;;;;18.55;4.53;;;;;;;;;;4976599;28;20089;-94
2023/05/27 05:59:37;;;;;;;15.73;4.53;;;;;;;;;;4977212;28;20053;-94
2023/05/27 06:02:22;;;;;;;16.83;5.65;;;;;;;;;;4977434;28;20490;-94
2023/05/27 06:05:07;;;;;;;19.88;4.60;;;;;;;;;;4948702;28;20049;-94
2023/05/27 06:07:53;;;;;;;22.40;5.40;;;;;;;;;;4976475;28;20085;-93
2023/05/27 06:10:37;;;;;;;17.30;4.43;;;;;;;;;;4977157;28;20057;-93
2023/05/27 06:13:22;;;;;;;19.50;4.47;;;;;;;;;;4962180;28;20042;-92
2023/05/27 06:16:06;;;;;;;13.80;4.05;;;;;;;;;;4961865;28;20046;-92
2023/05/27 06:18:51;;;;;;;14.63;4.03;;;;;;;;;;4976203;28;20066;-93
2023/05/27 06:21:36;;;;;;;16.05;3.88;;;;;;;;;;4976614;28;20123;-94
2023/05/27 06:24:21;;;;;;;19.52;4.88;;;;;;;;;;4976744;28;20045;-93
2023/05/27 06:27:07;;;;;;;20.88;4.82;;;;;;;;;;4976514;28;20090;-94
2023/05/27 06:29:52;;;;;;;14.93;4.82;;;;;;;;;;4976030;28;20134;-93
2023/05/27 06:32:36;;;;;;;28.15;4.85;;;;;;;;;;4976776;28;20038;-94
2023/05/27 06:35:20;;;;;;;15.32;4.88;;;;;;;;;;4961688;28;20034;-92
2023/05/27 06:38:05;;;;;;;17.25;4.63;;;;;;;;;;4975790;28;20097;-93
2023/05/27 06:40:50;;;;;;;16.25;5.05;;;;;;;;;;4975744;28;20074;-90
2023/05/27 06:43:35;;;;;;;18.40;4.93;;;;;;;;;;4960776;28;20053;-95
2023/05/27 06:46:19;;;;;;;19.83;4.15;;;;;;;;;;4949356;28;20530;-92
2023/05/27 06:49:04;;;;;;;21.73;4.88;;;;;;;;;;4974789;28;20134;-92
2023/05/27 06:51:48;;;;;;;18.08;4.38;;;;;;;;;;4960289;28;20061;-92
2023/05/27 06:54:33;;;;;;;17.67;4.90;;;;;;;;;;4960659;28;20073;-94
2023/05/27 06:57:18;;;;;;;19.65;3.92;;;;;;;;;;4975915;28;20050;-94
2023/05/27 07:00:05;;;;;;;16.15;4.28;;;;;;;;;;4975730;28;20109;-94
2023/05/27 07:02:49;;;;;;;19.63;4.45;;;;;;;;;;4948592;28;20101;-92
2023/05/27 07:05:36;;;;;;;15.43;4.82;;;;;;;;;;4979324;28;20045;-94
2023/05/27 07:08:21;;;;;;;18.13;4.72;;;;;;;;;;4978138;28;20093;-94
2023/05/27 07:11:06;;;;;;;15.07;4.15;;;;;;;;;;4961607;28;20399;-94
2023/05/27 07:13:51;;;;;;;18.15;4.07;;;;;;;;;;4963087;28;20042;-93
2023/05/27 07:16:35;;;;;;;17.67;4.93;;;;;;;;;;4975474;28;20399;-94
2023/05/27 07:19:20;;;;;;;19.08;4.18;;;;;;;;;;4975024;28;20089;-93
2023/05/27 07:22:04;;;;;;;19.17;4.57;;;;;;;;;;4974685;28;20057;-91
2023/05/27 07:24:49;;;;;;;15.27;4.20;;;;;;;;;;4975018;28;20090;-91
2023/05/27 07:27:34;;;;;;;16.65;4.13;;;;;;;;;;4974842;28;20122;-94
2023/05/27 07:30:19;;;;;;;18.65;4.22;;;;;;;;;;4959264;28;20042;-93
2023/05/27 07:33:04;;;;;;;14.10;3.78;;;;;;;;;;4974518;28;20501;-92
2023/05/27 07:35:48;;;;;;;20.27;4.70;;;;;;;;;;4949744;28;20050;-94
2023/05/27 07:38:33;;;;;;;18.80;4.43;;;;;;;;;;4961695;28;20510;-93
2023/05/27 07:41:18;;;;;;;13.77;4.25;;;;;;;;;;4975576;28;21127;-95
2023/05/27 07:44:03;;;;;;;14.48;4.45;;;;;;;;;;4975428;28;20454;-95
2023/05/27 07:46:48;;;;;;;19.40;3.70;;;;;;;;;;4975788;28;20080;-95
2023/05/27 07:49:32;;;;;;;14.40;3.65;;;;;;;;;;4977156;28;20066;-94
2023/05/27 07:52:17;;;;;;;16.63;4.28;;;;;;;;;;4977061;28;20094;-87
2023/05/27 07:55:01;;;;;;;19.73;4.20;;;;;;;;;;4951159;28;20045;-90
2023/05/27 07:57:46;;;;;;;16.83;4.93;;;;;;;;;;4960721;28;20109;-94
2023/05/27 08:00:31;;;;;;;14.07;4.28;;;;;;;;;;4960620;28;20400;-93
2023/05/27 08:03:15;;;;;;;15.98;4.05;;;;;;;;;;4974367;28;20050;-96
2023/05/27 08:06:00;;;;;;;12.95;3.58;;;;;;;;;;4947057;28;20126;-94
2023/05/27 08:08:45;;;;;;;22.83;3.88;;;;;;;;;;4974567;28;20139;-96
2023/05/27 08:11:30;;;;;;;15.00;4.13;;;;;;;;;;4964302;28;20455;-91
2023/05/27 08:14:15;;;;;;;14.75;3.95;;;;;;;;;;4959478;28;20472;-94
2023/05/27 08:17:00;;;;;;;12.63;3.78;;;;;;;;;;4962744;28;20061;-96
2023/05/27 08:19:44;;;;;;;15.75;5.32;;;;;;;;;;4953988;28;20050;-95
2023/05/27 08:22:29;;;;;;;13.23;3.38;;;;;;;;;;4972733;28;20058;-94
2023/05/27 08:25:16;;;;;;;15.20;3.78;;;;;;;;;;4974008;28;20046;-92
2023/05/27 08:28:07;;;;;;;16.60;3.75;;;;;;;;;;4954700;28;20072;-92
2023/05/27 08:30:52;;;;;;;13.15;3.08;;;;;;;;;;4963229;28;20134;-94
2023/05/27 08:33:39;;;;;;;16.40;3.40;;;;;;;;;;4974182;28;20395;-92
2023/05/27 08:36:24;;;;;;;15.82;4.18;;;;;;;;;;4955161;28;20121;-91
2023/05/27 08:39:09;;;;;;;17.38;4.28;;;;;;;;;;4945677;28;20050;-91
2023/05/27 08:41:54;;;;;;;13.25;3.78;;;;;;;;;;4975485;28;20419;-93
2023/05/27 08:44:39;;;;;;;17.10;4.95;;;;;;;;;;4952284;28;20073;-91
2023/05/27 08:47:23;;;;;;;13.60;3.83;;;;;;;;;;4959420;28;20042;-92
2023/05/27 08:50:11;;;;;;;13.98;4.13;;;;;;;;;;4943680;29;20098;-96
2023/05/27 08:52:56;;;;;;;17.88;4.43;;;;;;;;;;4957536;28;20546;-94
2023/05/27 08:55:42;;;;;;;19.23;3.85;;;;;;;;;;4960684;28;20109;-93
2023/05/27 08:58:27;;;;;;;12.73;4.40;;;;;;;;;;4959372;28;20088;-93
2023/05/27 09:01:12;;;;;;;12.65;3.67;;;;;;;;;;4949291;28;20070;-91
2023/05/27 09:03:57;;;;;;;15.68;3.90;;;;;;;;;;4975256;28;20502;-93
2023/05/27 09:06:44;;;;;;;16.55;5.00;;;;;;;;;;4975675;28;20497;-95
2023/05/27 09:09:29;;;;;;;16.45;3.78;;;;;;;;;;4958406;28;20038;-94
2023/05/27 09:12:22;;;;;;;18.55;4.20;;;;;;;;;;4955646;28;20125;-94
2023/05/27 09:15:07;;;;;;;13.20;3.80;;;;;;;;;;4968941;28;20034;-92
2023/05/27 09:17:52;;;;;;;14.77;4.03;;;;;;;;;;4977138;28;20046;-92
2023/05/27 09:20:36;;;;;;;15.82;4.38;;;;;;;;;;4949683;28;20158;-91
2023/05/27 09:23:21;;;;;;;17.98;4.75;;;;;;;;;;4979067;28;20142;-94
2023/05/27 09:26:12;;;;;;;12.32;4.20;;;;;;;;;;4957509;28;20399;-92
2023/05/27 09:29:02;;;;;;;15.93;3.97;;;;;;;;;;4974268;28;20061;-93
2023/05/27 09:31:47;;;;;;;16.48;3.88;;;;;;;;;;4971727;28;20105;-93
2023/05/27 09:34:38;;;;;;;15.98;3.92;;;;;;;;;;4954111;28;20046;-93
2023/05/27 09:37:31;;;;;;;16.77;4.40;;;;;;;;;;4955787;28;20041;-94
2023/05/27 09:40:18;;;;;;;17.88;4.10;;;;;;;;;;4973299;28;20494;-93
2023/05/27 09:43:03;;;;;;;19.27;3.72;;;;;;;;;;4962088;28;20045;-92
2023/05/27 09:45:49;;;;;;;12.63;3.60;;;;;;;;;;4959533;28;20080;-95
2023/05/27 09:48:40;;;;;;;14.70;4.07;;;;;;;;;;4948330;28;20039;-93
2023/05/27 09:51:28;;;;;;;14.27;3.60;;;;;;;;;;4965762;28;20081;-93
2023/05/27 09:54:18;;;;;;;13.75;4.25;;;;;;;;;;4949687;28;20046;-93
2023/05/27 09:57:07;;;;;;;16.70;5.07;;;;;;;;;;4961747;28;20101;-95
2023/05/27 09:59:52;;;;;;;18.15;4.30;;;;;;;;;;4965833;28;20095;-94
2023/05/27 10:02:38;;;;;;;15.68;4.53;;;;;;;;;;4960331;28;20105;-94
2023/05/27 10:05:32;;;;;;;15.90;3.70;;;;;;;;;;4948266;29;20510;-92
2023/05/27 10:08:20;;;;;;;16.95;3.97;;;;;;;;;;4965027;28;20038;-96
2023/05/27 10:11:38;;;;;;;;;;;;;;;;;;;;;
2023/05/27 10:14:23;;;;;;;19.48;3.88;;;;;;;;;;4983903;28;20041;-92
2023/05/27 10:17:11;;;;;;;13.02;4.10;;;;;;;;;;4962515;28;20042;-93
2023/05/27 10:20:03;;;;;;;15.02;3.83;;;;;;;;;;4961434;28;20038;-95
2023/05/27 10:23:03;;;;;;;;;;;;;;;;;;;;;
2023/05/27 10:25:55;;;;;;;18.27;4.22;;;;;;;;;;4965137;28;20050;-94
2023/05/27 10:29:27;;;;;;;19.05;4.18;;;;;;;;;;4958966;28;20081;-95
2023/05/27 10:32:08;;;;;;;15.98;3.47;;;;;;;;;;4975230;28;20057;-94
2023/05/27 10:35:06;;;;;;;17.98;4.07;;;;;;;;;;4987198;28;20451;-96
2023/05/27 10:37:54;;;;;;;12.43;3.80;;;;;;;;;;4979664;28;20046;-92
2023/05/27 10:41:17;;;;;;;12.15;3.50;;;;;;;;;;4978695;28;20065;-95
2023/05/27 10:44:21;;;;;;;12.55;3.83;;;;;;;;;;4985651;28;20069;-93
2023/05/27 10:47:24;;;;;;;16.35;4.43;;;;;;;;;;4978302;28;20120;-95
2023/05/27 10:50:30;;;;;;;17.08;4.22;;;;;;;;;;4974907;28;20085;-95
2023/05/27 10:53:25;;;;;;;11.82;3.38;;;;;;;;;;4961509;28;20029;-95
2023/05/27 10:56:13;;;;;;;15.18;4.90;;;;;;;;;;4972395;28;20498;-95
2023/05/27 10:59:13;;;;;;;13.05;3.97;;;;;;;;;;4965404;28;20101;-94
2023/05/27 11:01:58;;;;;;;10.80;3.90;;;;;;;;;;4965833;28;20041;-94
2023/05/27 11:04:46;;;;;;;13.85;4.10;;;;;;;;;;4983645;28;20070;-95
2023/05/27 11:07:30;;;;;;;15.40;4.13;;;;;;;;;;4966312;28;20054;-94
2023/05/27 11:10:20;;;;;;;19.98;4.25;;;;;;;;;;4983213;28;20053;-95
2023/05/27 11:13:11;;;;;;;15.95;4.95;;;;;;;;;;4972538;28;20089;-93
2023/05/27 11:16:01;;;;;;;14.48;4.85;;;;;;;;;;4962173;28;20090;-94
2023/05/27 11:18:49;;;;;;;12.18;4.32;;;;;;;;;;4950683;28;20054;-95
2023/05/27 11:21:44;;;;;;;12.43;4.25;;;;;;;;;;4971082;28;20046;-94
2023/05/27 11:24:29;;;;;;;15.13;3.90;;;;;;;;;;4972883;28;20117;-94
2023/05/27 11:27:19;;;;;;;17.25;3.88;;;;;;;;;;4966024;28;20043;-93
2023/05/27 11:30:09;;;;;;;14.68;4.07;;;;;;;;;;4952546;28;20509;-95
2023/05/27 11:33:02;;;;;;;10.85;3.92;;;;;;;;;;4963626;28;20086;-95
2023/05/27 11:36:07;;;;;;;13.52;3.65;;;;;;;;;;4964833;28;20085;-94
2023/05/27 11:38:57;;;;;;;19.40;4.47;;;;;;;;;;4981136;28;20058;-95
2023/05/27 11:41:50;;;;;;;11.27;3.88;;;22.30;75.10;;;;;;4963393;29;20062;-93
2023/05/27 11:44:35;;;;;;;11.75;4.13;;;;;;;;;;4948778;29;20102;-95
2023/05/27 11:47:20;;;;;;;11.82;3.53;;;;;;;;;;4945202;29;20071;-94
2023/05/27 11:50:05;;;;;;;18.23;4.82;;;;;;;;;;4963385;29;20038;-95
2023/05/27 11:52:53;;;;;;;14.05;4.57;;;;;;;;;;4965644;29;20030;-94
2023/05/27 11:55:39;;;;;;;15.43;4.28;;;;;;;;;;4960761;29;20126;-94
2023/05/27 11:58:24;;;;;;;9.65;3.42;;;;;;;;;;4957481;29;20059;-94
2023/05/27 12:01:09;;;;;;;17.50;4.13;;;;;;;;;;4955099;29;20613;-94
2023/05/27 12:03:53;;;;;;;14.07;3.90;;;;;;;;;;4935276;29;20090;-95
2023/05/27 12:06:38;;;;;;;12.70;3.97;;;;;;;;;;4971784;29;20038;-94
2023/05/27 12:09:26;;;;;;;14.85;3.90;;;;;;;;;;4948637;29;20094;-94
2023/05/27 12:12:10;;;;;;;10.07;3.65;;;;;;;;;;4930789;29;20075;-94
2023/05/27 12:14:55;;;;;;;11.73;3.10;;;;;;;;;;4930898;29;20034;-95
2023/05/27 12:17:40;;;;;;;12.15;3.95;;;;;;;;;;4947143;29;20064;-94
2023/05/27 12:20:27;;;;;;;14.85;4.40;;;;;;;;;;4958274;29;20063;-95
2023/05/27 12:23:11;;;;;;;12.30;3.92;;;;;;;;;;4943713;29;20046;-93
2023/05/27 12:25:56;;;;;;;18.35;4.60;;;;;;;;;;4950556;29;20141;-95
2023/05/27 12:28:44;;;;;;;11.82;3.83;;;;;;;;;;4957920;29;20081;-94
2023/05/27 12:31:29;;;;;;;9.75;3.45;;;;;;;;;;4957513;29;20078;-95
2023/05/27 12:34:13;;;;;;;13.70;4.43;;;;;;;;;;4929680;29;20065;-95
2023/05/27 12:36:58;;;;;;;11.63;4.00;;;;;;;;;;4957549;29;20042;-94
2023/05/27 12:39:43;;;;;;;11.95;3.95;;;;;;;;;;4932413;29;20095;-94
2023/05/27 12:42:28;;;;;;;12.60;4.45;;;;;;;;;;4974370;28;20105;-95
2023/05/27 12:45:12;;;;;;;15.75;3.70;;;;;;;;;;4961236;28;20128;-94
2023/05/27 12:48:04;;;;;;;12.18;4.20;;;23.40;68.50;;;;;;4975658;28;20137;-94
2023/05/27 12:50:56;;;;;;;13.57;5.00;;;;;;;;;;4970902;28;20046;-93
2023/05/27 12:54:11;;;;;;;16.20;3.85;;;;;;;;;;4963708;28;20105;-95
2023/05/27 12:57:04;;;;;;;12.05;3.80;;;;;;;;;;4960433;28;20081;-96
2023/05/27 13:00:04;;;;;;;13.75;4.00;;;;;;;;;;4976159;28;20546;-93
2023/05/27 13:02:58;;;;;;;10.90;3.50;;;;;;;;;;4961003;28;20041;-92
2023/05/27 13:05:53;;;;;;;17.23;4.60;;;;;;;;;;4977298;28;20057;-94
2023/05/27 13:08:54;;;;;;;9.80;3.45;;;;;;;;;;4949288;28;20128;-94
2023/05/27 13:11:44;;;;;;;11.10;3.78;;;;;;;;;;4948472;28;20069;-94
2023/05/27 13:14:34;;;;;;;11.00;3.75;;;;;;;;;;4949364;28;20478;-95
2023/05/27 13:17:25;;;;;;;12.25;4.05;;;;;;;;;;4962870;28;20045;-94
2023/05/27 13:20:10;;;;;;;10.18;3.63;;;;;;;;;;4978323;28;20033;-94
2023/05/27 13:23:18;;;;;;;15.35;3.80;;;;;;;;;;4961687;28;20062;-93
2023/05/27 13:26:07;;;;;;;15.18;4.43;;;;;;;;;;4954749;28;20170;-95
2023/05/27 13:29:13;;;;;;;11.75;3.47;;;;;;;;;;4975384;28;20161;-96
2023/05/27 13:32:17;;;;;;;;;;;;;;;;;;;;;
2023/05/27 13:35:05;;;;;;;15.60;4.10;;;;;;;;;;4974935;28;20081;-93
2023/05/27 13:38:00;;;;;;;14.20;4.07;;;;;;;;;;4952883;28;20114;-95
2023/05/27 13:40:52;;;;;;;10.63;3.58;;;;;;;;;;4951928;28;20098;-95
2023/05/27 13:43:36;;;;;;;13.88;4.00;;;;;;;;;;4974415;28;20503;-95
2023/05/27 13:46:21;;;;;;;12.02;4.03;;;;;;;;;;4946357;28;20078;-94
2023/05/27 13:49:23;;;;;;;15.82;3.85;;;;;;;;;;4958363;28;20451;-94
2023/05/27 13:52:08;;;;;;;11.35;3.80;;;;;;;;;;4965362;28;20182;-94
2023/05/27 13:55:03;;;;;;;12.32;4.05;;;;;;;;;;4946882;28;20058;-94
2023/05/27 13:57:50;;;;;;;15.80;4.57;;;;;;;;;;4969976;28;20037;-95
2023/05/27 14:00:37;;;;;;;17.20;4.63;;;;;;;;;;4958824;28;20041;-93
2023/05/27 14:03:24;;;;;;;15.35;4.22;;;;;;;;;;4960316;28;20041;-94
2023/05/27 14:06:12;;;;;;;14.70;4.28;;;;;;;;;;4976752;28;20053;-95
2023/05/27 14:09:00;;;;;;;11.13;3.90;;;;;;;;;;4978035;28;20518;-93
2023/05/27 14:11:45;;;;;;;14.88;4.95;;;;;;;;;;4949545;28;20049;-94
2023/05/27 14:14:29;;;;;;;11.52;3.70;;;;;;;;;;4971389;28;20089;-94
2023/05/27 14:17:23;;;;;;;12.73;3.72;;;;;;;;;;4962459;28;20054;-95
2023/05/27 14:20:10;;;;;;;10.52;4.30;;;;;;;;;;4964171;28;20041;-94
2023/05/27 14:22:55;;;;;;;14.25;4.65;;;;;;;;;;4962983;28;20102;-95
2023/05/27 14:25:40;;;;;;;12.32;4.10;;;;;;;;;;4973731;28;20113;-94
2023/05/27 14:28:24;;;;;;;11.38;3.50;;;;;;;;;;4973142;28;20659;-94
2023/05/27 14:31:11;;;;;;;13.20;3.70;;;;;;;;;;4962471;28;20061;-94
2023/05/27 14:33:56;;;;;;;15.88;3.95;;;;;;;;;;4963051;28;20110;-95
2023/05/27 14:36:54;;;;;;;12.50;3.92;;;;;;;;;;4962712;28;20098;-94
2023/05/27 14:39:41;;;;;;;10.65;3.72;;;;;;;;;;4965833;28;20045;-95
2023/05/27 14:42:49;;;;;;;13.00;4.07;;;;;;;;;;4978072;28;20062;-95
2023/05/27 14:45:49;;;;;;;15.93;4.35;;;;;;;;;;4979438;28;20114;-94
2023/05/27 14:48:36;;;;;;;17.25;4.55;;;;;;;;;;4981447;28;20113;-95
2023/05/27 14:51:24;;;;;;;15.35;3.83;;;;;;;;;;4980672;28;20105;-95
2023/05/27 14:54:14;;;;;;;14.75;4.22;;;;;;;;;;4952049;28;20054;-94
2023/05/27 14:57:04;;;;;;;14.32;3.55;;;;;;;;;;4973959;28;20053;-94
2023/05/27 14:59:52;;;;;;;12.15;3.78;;;;;;;;;;4983899;28;20121;-94
2023/05/27 15:02:59;;;;;;;13.75;4.65;;;;;;;;;;4968032;28;20130;-94
2023/05/27 15:05:46;;;;;;;11.07;4.20;;;;;;;;;;4967675;28;20037;-94
2023/05/27 15:08:47;;;;;;;14.27;3.78;;;;;;;;;;4979331;28;20093;-95
2023/05/27 15:11:36;;;;;;;14.15;4.40;;;;;;;;;;4982020;28;20057;-94
2023/05/27 15:14:25;;;;;;;13.30;4.32;;;;;;;;;;4980130;28;20129;-94
2023/05/27 15:17:22;;;;;;;13.20;4.00;;;;;;;;;;4980460;28;20065;-94
2023/05/27 15:20:07;;;;;;;13.88;4.03;;;;;;;;;;4977152;28;20038;-95
2023/05/27 15:22:55;;;;;;;9.82;3.60;;;;;;;;;;4966307;28;20458;-94
2023/05/27 15:25:42;;;;;;;12.77;3.90;;;;;;;;;;4971458;28;20123;-95
2023/05/27 15:28:32;;;;;;;10.10;3.08;;;;;;;;;;4955261;28;20411;-94
2023/05/27 15:31:22;;;;;;;10.65;3.50;;;;;;;;;;4992327;28;20042;-91
2023/05/27 15:34:14;;;;;;;10.82;4.60;;;;;;;;;;4962073;29;20078;-93
2023/05/27 15:37:23;;;;;;;11.05;4.00;;;;;;;;;;4971449;28;20526;-95
2023/05/27 15:40:40;;;;;;;12.63;4.50;;;;;;;;;;4984688;28;20506;-96
2023/05/27 15:43:33;;;;;;;15.40;4.80;;;;;;;;;;4975974;28;20089;-95
2023/05/27 15:46:21;;;;;;;15.73;4.07;;;;;;;;;;4955474;28;20037;-93
2023/05/27 15:49:29;;;;;;;16.50;4.32;;;;;;;;;;4989813;28;20062;-96
2023/05/27 15:52:14;;;;;;;11.48;4.20;;;;;;;;;;4974732;28;20053;-95
2023/05/27 15:54:59;;;;;;;15.63;4.47;;;;;;;;;;4980546;28;20046;-94
2023/05/27 15:57:52;;;;;;;16.73;4.90;;;;;;;;;;4966674;28;20060;-94
2023/05/27 16:00:37;;;;;;;13.97;4.40;;;;;;;;;;4952806;28;20034;-95
2023/05/27 16:03:21;;;;;;;17.92;4.68;;;;;;;;;;4937325;28;20041;-92
2023/05/27 16:06:10;;;;;;;17.08;4.82;;;;;;;;;;4977263;28;20045;-94
2023/05/27 16:08:55;;;;;;;19.58;4.80;;;;;;;;;;4963290;28;20041;-93
2023/05/27 16:11:39;;;;;;;12.27;4.60;;;;;;;;;;4958322;28;20886;-94
2023/05/27 16:14:26;;;;;;;21.23;5.18;;;;;;;;;;4959314;28;20041;-93
2023/05/27 16:17:11;;;;;;;14.73;4.85;;;;;;;;;;4949105;28;20541;-92
2023/05/27 16:19:59;;;;;;;18.48;4.95;;;;;;;;;;4971386;28;20034;-91
2023/05/27 16:23:05;;;;;;;;;;;;;;;;;;;;;
2023/05/27 16:25:55;;;;;;;17.23;4.30;;;;;;;;;;4973940;28;20037;-92
2023/05/27 16:28:41;;;;;;;12.13;4.00;;;;;;;;;;4966996;28;20138;-93
2023/05/27 16:31:26;;;;;;;15.45;4.65;;;;;;;;;;4944470;28;20038;-94
2023/05/27 16:34:13;;;;;;;16.77;4.00;;;;;;;;;;4941229;29;20093;-92
2023/05/27 16:36:58;;;;;;;12.98;4.07;;;;;;;;;;4969108;28;20084;-93
2023/05/27 16:39:42;;;;;;;10.63;4.00;;;;;;;;;;4948955;28;20050;-94
2023/05/27 16:42:27;;;;;;;15.90;4.70;;;;;;;;;;4942795;29;20102;-94
2023/05/27 16:45:12;;;;;;;16.67;4.70;;;;;;;;;;4932830;29;20121;-94
2023/05/27 16:47:56;;;;;;;15.60;4.50;;;;;;;;;;4941360;29;20042;-93
2023/05/27 16:50:46;;;;;;;14.40;4.53;;;;;;;;;;4955467;29;20034;-94
2023/05/27 16:53:33;;;;;;;18.83;4.47;;;;;;;;;;4944141;29;20038;-93